Terminal Aerodrome Forecast
Issued by NWS

Home | Current Version | Previous Version | Text Only | Print | Product List | Glossary On
Versions: 1 2 3 4 5 6 7 8 9 10 11 12 13 14 15 16 17 18
000
FTUS43 KSGF 190500
TAFBBG
TAF
KBBG 190520Z 1906/2006 VRB03KT 1/2SM FG OVC002
     FM190900 VRB03KT 1/4SM FG OVC001
     FM191600 VRB03KT 3/4SM BR OVC002
     FM191900 VRB03KT 2SM BR OVC005
     FM192100 VRB03KT 4SM BR OVC007
     FM200100 00000KT 2SM BR OVC003=

USA.gov is the U.S. government's official web portal to all federal, state and local government web resources and services.